sensor_id;sensor_type;location;lat;lon;timestamp;P1;P2;P0
50041;PMS7003;44598;51.606;5.912;2023-03-01T00:01:50;16.21;16.69;8.62
50041;PMS7003;44598;51.606;5.912;2023-03-01T00:15:09;14.89;15.81;7.64
50041;PMS7003;44598;51.606;5.912;2023-03-01T00:28:29;15.73;16.58;7.86
50041;PMS7003;44598;51.606;5.912;2023-03-01T00:41:49;14.41;15.81;7.86
50041;PMS7003;44598;51.606;5.912;2023-03-01T00:55:09;14.53;16.36;7.97
50041;PMS7003;44598;51.606;5.912;2023-03-01T01:08:29;15.37;16.9;7.97
50041;PMS7003;44598;51.606;5.912;2023-03-01T01:21:49;14.05;15.81;7.75
50041;PMS7003;44598;51.606;5.912;2023-03-01T01:35:08;18.37;19.41;9.49
50041;PMS7003;44598;51.606;5.912;2023-03-01T01:48:28;16.33;17.99;8.29
50041;PMS7003;44598;51.606;5.912;2023-03-01T02:01:48;16.69;18.43;8.51
50041;PMS7003;44598;51.606;5.912;2023-03-01T02:15:08;15.49;17.01;8.4
50041;PMS7003;44598;51.606;5.912;2023-03-01T02:28:28;16.57;18.32;8.73
50041;PMS7003;44598;51.606;5.912;2023-03-01T02:41:47;17.53;18.87;8.62
50041;PMS7003;44598;51.606;5.912;2023-03-01T02:55:07;15.73;17.56;8.62
50041;PMS7003;44598;51.606;5.912;2023-03-01T03:08:27;16.09;17.89;8.62
50041;PMS7003;44598;51.606;5.912;2023-03-01T03:21:47;17.41;18.76;9.17
50041;PMS7003;44598;51.606;5.912;2023-03-01T03:35:07;16.57;17.67;8.84
50041;PMS7003;44598;51.606;5.912;2023-03-01T03:48:27;17.17;18.32;8.73
50041;PMS7003;44598;51.606;5.912;2023-03-01T04:28:26;18.97;20.17;9.38
50041;PMS7003;44598;51.606;5.912;2023-03-01T04:41:46;19.45;20.39;9.17
50041;PMS7003;44598;51.606;5.912;2023-03-01T04:55:06;18.61;19.96;9.38
50041;PMS7003;44598;51.606;5.912;2023-03-01T05:21:45;23.17;23.44;9.38
50041;PMS7003;44598;51.606;5.912;2023-03-01T05:35:05;20.05;20.28;9.27
50041;PMS7003;44598;51.606;5.912;2023-03-01T06:15:04;22.21;22.35;10.15
50041;PMS7003;44598;51.606;5.912;2023-03-01T06:28:24;24.97;24.21;11.02
50041;PMS7003;44598;51.606;5.912;2023-03-01T06:41:44;22.69;22.79;10.58
50041;PMS7003;44598;51.606;5.912;2023-03-01T06:55:04;23.65;23.55;10.91
50041;PMS7003;44598;51.606;5.912;2023-03-01T07:08:24;26.17;25.08;10.58
50041;PMS7003;44598;51.606;5.912;2023-03-01T07:21:43;24.85;23.66;11.13
50041;PMS7003;44598;51.606;5.912;2023-03-01T07:35:03;25.69;24.75;11.67
50041;PMS7003;44598;51.606;5.912;2023-03-01T08:01:43;29.41;25.3;11.89
50041;PMS7003;44598;51.606;5.912;2023-03-01T08:15:03;22.93;22.57;10.69
50041;PMS7003;44598;51.606;5.912;2023-03-01T08:28:22;21.49;21.81;10.47
50041;PMS7003;44598;51.606;5.912;2023-03-01T08:41:42;20.17;21.26;9.49
50041;PMS7003;44598;51.606;5.912;2023-03-01T09:08:22;14.89;16.69;8.73
50041;PMS7003;44598;51.606;5.912;2023-03-01T09:21:42;14.05;15.71;7.86
50041;PMS7003;44598;51.606;5.912;2023-03-01T09:48:21;13.09;14.62;7.42
50041;PMS7003;44598;51.606;5.912;2023-03-01T10:01:41;13.57;15.49;8.08
50041;PMS7003;44598;51.606;5.912;2023-03-01T10:15:01;12.25;14.4;8.4
50041;PMS7003;44598;51.606;5.912;2023-03-01T10:28:21;11.77;13.53;7.75
50041;PMS7003;44598;51.606;5.912;2023-03-01T10:41:40;11.41;13.53;7.42
50041;PMS7003;44598;51.606;5.912;2023-03-01T10:55:00;10.33;12.44;6.99
50041;PMS7003;44598;51.606;5.912;2023-03-01T11:35:00;8.89;11.13;6.33
50041;PMS7003;44598;51.606;5.912;2023-03-01T12:01:39;8.77;11.24;6.55
50041;PMS7003;44598;51.606;5.912;2023-03-01T12:14:59;10.21;11.89;6.77
50041;PMS7003;44598;51.606;5.912;2023-03-01T12:28:19;9.97;12.11;6.22
50041;PMS7003;44598;51.606;5.912;2023-03-01T12:41:39;8.65;10.8;6.11
50041;PMS7003;44598;51.606;5.912;2023-03-01T12:54:59;10.69;12.76;6.66
50041;PMS7003;44598;51.606;5.912;2023-03-01T13:08:19;10.57;12.65;6.22
50041;PMS7003;44598;51.606;5.912;2023-03-01T13:21:38;9.37;11.56;6.55
50041;PMS7003;44598;51.606;5.912;2023-03-01T13:34:58;10.09;12.11;6.99
50041;PMS7003;44598;51.606;5.912;2023-03-01T13:48:18;10.09;11.13;6.33
50041;PMS7003;44598;51.606;5.912;2023-03-01T14:14:58;11.05;12.22;6.66
50041;PMS7003;44598;51.606;5.912;2023-03-01T14:28:17;10.81;12.87;6.88
50041;PMS7003;44598;51.606;5.912;2023-03-01T14:41:37;9.01;11.45;6.0
50041;PMS7003;44598;51.606;5.912;2023-03-01T14:54:57;8.89;11.02;6.33
50041;PMS7003;44598;51.606;5.912;2023-03-01T15:08:17;9.01;11.35;6.22
50041;PMS7003;44598;51.606;5.912;2023-03-01T15:21:37;11.29;13.31;7.2
50041;PMS7003;44598;51.606;5.912;2023-03-01T15:34:56;9.85;12.11;6.55
50041;PMS7003;44598;51.606;5.912;2023-03-01T15:48:16;7.93;10.47;6.0
50041;PMS7003;44598;51.606;5.912;2023-03-01T16:14:56;10.09;12.0;6.66
50041;PMS7003;44598;51.606;5.912;2023-03-01T16:28:16;11.05;13.2;6.77
50041;PMS7003;44598;51.606;5.912;2023-03-01T16:54:55;9.01;11.45;6.22
50041;PMS7003;44598;51.606;5.912;2023-03-01T17:08:15;9.85;11.56;6.33
50041;PMS7003;44598;51.606;5.912;2023-03-01T17:21:35;9.61;11.89;6.22
50041;PMS7003;44598;51.606;5.912;2023-03-01T17:34:55;9.13;11.56;6.11
50041;PMS7003;44598;51.606;5.912;2023-03-01T18:01:34;9.61;11.45;6.0
50041;PMS7003;44598;51.606;5.912;2023-03-01T18:14:54;10.57;12.65;6.33
50041;PMS7003;44598;51.606;5.912;2023-03-01T18:28:14;12.13;14.07;6.44
50041;PMS7003;44598;51.606;5.912;2023-03-01T18:41:34;19.81;20.39;9.17
50041;PMS7003;44598;51.606;5.912;2023-03-01T18:54:54;14.17;15.92;7.97
50041;PMS7003;44598;51.606;5.912;2023-03-01T19:08:13;12.25;14.07;6.66
50041;PMS7003;44598;51.606;5.912;2023-03-01T19:21:33;12.61;13.96;6.99
50041;PMS7003;44598;51.606;5.912;2023-03-01T19:34:53;12.25;13.85;6.88
50041;PMS7003;44598;51.606;5.912;2023-03-01T19:48:13;13.93;15.27;7.42
50041;PMS7003;44598;51.606;5.912;2023-03-01T20:01:33;10.57;12.65;6.22
50041;PMS7003;44598;51.606;5.912;2023-03-01T20:14:52;11.77;13.63;6.11
50041;PMS7003;44598;51.606;5.912;2023-03-01T20:28:12;10.57;12.76;6.0
50041;PMS7003;44598;51.606;5.912;2023-03-01T20:41:32;10.69;12.65;6.22
50041;PMS7003;44598;51.606;5.912;2023-03-01T20:54:52;9.61;11.89;5.79
50041;PMS7003;44598;51.606;5.912;2023-03-01T21:08:12;11.65;12.54;5.79
50041;PMS7003;44598;51.606;5.912;2023-03-01T21:21:31;10.69;12.44;6.22
50041;PMS7003;44598;51.606;5.912;2023-03-01T21:34:51;9.97;12.11;5.68
50041;PMS7003;44598;51.606;5.912;2023-03-01T21:48:11;11.29;12.44;6.0
50041;PMS7003;44598;51.606;5.912;2023-03-01T22:01:31;11.53;13.42;6.0
50041;PMS7003;44598;51.606;5.912;2023-03-01T22:14:51;13.93;14.51;6.22
50041;PMS7003;44598;51.606;5.912;2023-03-01T22:28:10;12.85;14.62;6.44
50041;PMS7003;44598;51.606;5.912;2023-03-01T22:41:30;12.01;12.87;6.11
50041;PMS7003;44598;51.606;5.912;2023-03-01T22:54:50;11.29;13.2;6.0
50041;PMS7003;44598;51.606;5.912;2023-03-01T23:08:10;16.33;17.01;7.31
50041;PMS7003;44598;51.606;5.912;2023-03-01T23:21:30;13.69;15.49;7.31
